Malaysia Virtual Airlines Airport Information Service

Hong Kong International Airport

ICAO: VHHH Country: Hong Kong
Latitude: 22.3089 Longitude: 113.915
Latest Arrival : AK239 (WBKK-VHHH) Latest Departure : MC385 (VHHH-WBKK)


WX CaptureLIVE
Data provided by noaa.gov | Fetched at 05:19:24

METAR : VHHH 290500Z 30009KT 260V350 CAVOK 25/13 Q1016 NOSIG

TAF : VHHH 282300Z 2900/3006 04010KT CAVOK TX26/2906Z TX24/3006Z TN18/2922Z BECMG 2902/2904 27010KT BECMG 2909/2911 10010KT BECMG 2914/2916 01015KT


Runway Data for VHHH
Data provided by openaviationdata.com

Runway ID Mag Var Hdg Length Elevation Surface ILS Freq ILS Id ILS Slope
07L -2 72° 12431 ft 28 ft Asphalt 111.1 IZSL 3
07R -2 72° 12431 ft 28 ft Asphalt 109.3 ISR 3
25L -2 252° 12431 ft 28 ft Asphalt 108.9 IFL 3
25R -2 252° 12431 ft 28 ft Asphalt 110.9 ITFR 3

Hong Kong International Airport, Hong Kong
Use only for reference purposes



Not for navigational purposes.